createdAt,value
2023-09-27T00:01:56.674Z,101205.00
2023-09-27T00:04:59.472Z,101203.28
2023-09-27T00:08:02.019Z,101213.75
2023-09-27T00:11:04.462Z,101201.56
2023-09-27T00:14:07.075Z,101208.28
2023-09-27T00:17:09.551Z,101202.09
2023-09-27T00:20:15.865Z,101203.78
2023-09-27T00:23:18.355Z,101205.25
2023-09-27T00:26:20.874Z,101204.50
2023-09-27T00:29:24.438Z,101212.16
2023-09-27T00:32:26.974Z,101208.81
2023-09-27T00:35:29.532Z,101210.84
2023-09-27T00:38:32.714Z,101207.03
2023-09-27T00:41:35.316Z,101201.50
2023-09-27T00:44:38.141Z,101202.19
2023-09-27T00:47:41.680Z,101205.50
2023-09-27T00:50:44.081Z,101197.13
2023-09-27T00:53:50.473Z,101197.88
2023-09-27T00:56:53.587Z,101201.50
2023-09-27T00:59:58.761Z,101198.22
2023-09-27T01:03:03.660Z,101196.47
2023-09-27T01:06:06.398Z,101198.84
2023-09-27T01:09:08.878Z,101192.38
2023-09-27T01:12:11.730Z,101194.75
2023-09-27T01:15:14.249Z,101198.13
2023-09-27T01:18:16.815Z,101195.91
2023-09-27T01:21:20.318Z,101196.09
2023-09-27T01:24:23.176Z,101202.72
2023-09-27T01:27:25.900Z,101202.56
2023-09-27T01:30:34.940Z,101206.50
2023-09-27T01:33:38.355Z,101207.31
2023-09-27T01:36:40.743Z,101203.41
2023-09-27T01:39:43.234Z,101201.72
2023-09-27T01:42:45.791Z,101201.88
2023-09-27T01:45:48.309Z,101190.66
2023-09-27T01:48:52.371Z,101193.94
2023-09-27T01:51:55.703Z,101187.47
2023-09-27T01:54:58.188Z,101195.25
2023-09-27T01:58:01.849Z,101199.66
2023-09-27T02:01:05.042Z,101202.34
2023-09-27T02:04:07.906Z,101201.09
2023-09-27T02:07:10.333Z,101203.13
2023-09-27T02:10:13.122Z,101204.72
2023-09-27T02:13:15.598Z,101210.88
2023-09-27T02:16:18.050Z,101209.97
2023-09-27T02:19:20.542Z,101211.22
2023-09-27T02:22:24.203Z,101212.50
2023-09-27T02:25:27.026Z,101212.00
2023-09-27T02:28:29.665Z,101208.53
2023-09-27T02:31:32.878Z,101212.31
2023-09-27T02:34:35.954Z,101222.63
2023-09-27T02:37:40.755Z,101222.13
2023-09-27T02:40:43.496Z,101218.81
2023-09-27T02:43:46.079Z,101214.56
2023-09-27T02:46:48.495Z,101223.72
2023-09-27T02:49:50.962Z,101228.28
2023-09-27T02:52:53.401Z,101232.06
2023-09-27T02:55:55.858Z,101218.34
2023-09-27T02:58:58.611Z,101211.53
2023-09-27T03:02:01.161Z,101221.16
2023-09-27T03:05:08.457Z,101216.00
2023-09-27T03:08:11.465Z,101224.66
2023-09-27T03:11:14.112Z,101226.06
2023-09-27T03:14:16.529Z,101211.84
2023-09-27T03:17:19.043Z,101222.09
2023-09-27T03:20:22.650Z,101217.53
2023-09-27T03:23:26.878Z,101219.09
2023-09-27T03:26:29.474Z,101217.66
2023-09-27T03:29:31.950Z,101223.66
2023-09-27T03:32:35.969Z,101229.66
2023-09-27T03:35:38.481Z,101228.84
2023-09-27T03:38:42.012Z,101222.41
2023-09-27T03:41:44.465Z,101227.59
2023-09-27T03:44:48.347Z,101224.59
2023-09-27T03:47:51.253Z,101223.81
2023-09-27T03:50:56.129Z,101236.91
2023-09-27T03:53:58.598Z,101232.47
2023-09-27T03:57:01.123Z,101225.84
2023-09-27T04:00:08.111Z,101236.69
2023-09-27T04:03:15.247Z,101229.91
2023-09-27T04:06:17.912Z,101231.81
2023-09-27T04:09:20.773Z,101230.53
2023-09-27T04:12:23.355Z,101229.44
2023-09-27T04:15:25.945Z,101231.34
2023-09-27T04:18:28.944Z,101226.94
2023-09-27T04:21:31.374Z,101234.00
2023-09-27T04:24:33.880Z,101228.31
2023-09-27T04:27:36.343Z,101229.88
2023-09-27T04:30:38.737Z,101231.09
2023-09-27T04:33:45.289Z,101233.03
2023-09-27T04:36:48.716Z,101233.34
2023-09-27T04:39:51.298Z,101239.63
2023-09-27T04:42:53.757Z,101242.19
2023-09-27T04:45:56.249Z,101238.84
2023-09-27T04:48:58.696Z,101243.78
2023-09-27T04:52:01.066Z,101242.81
2023-09-27T04:55:03.835Z,101245.19
2023-09-27T04:58:07.267Z,101250.84
2023-09-27T05:01:11.249Z,101250.09
2023-09-27T05:04:13.769Z,101252.16
2023-09-27T05:07:21.055Z,101252.81
2023-09-27T05:10:23.670Z,101259.63
2023-09-27T05:13:26.202Z,101261.25
2023-09-27T05:16:28.548Z,101258.44
2023-09-27T05:19:31.183Z,101259.06
2023-09-27T05:22:35.012Z,101264.44
2023-09-27T05:25:37.845Z,101263.47
2023-09-27T05:28:41.118Z,101260.97
2023-09-27T05:31:47.054Z,101262.81
2023-09-27T05:34:49.490Z,101265.97
2023-09-27T05:37:51.920Z,101266.44
2023-09-27T05:40:54.375Z,101267.91
2023-09-27T05:43:56.918Z,101278.19
2023-09-27T05:46:59.479Z,101274.53
2023-09-27T05:50:02.126Z,101284.38
2023-09-27T05:53:04.631Z,101277.34
2023-09-27T05:56:07.107Z,101280.50
2023-09-27T05:59:10.426Z,101276.03
2023-09-27T06:02:18.063Z,101282.28
2023-09-27T06:05:20.936Z,101280.66
2023-09-27T06:08:24.149Z,101280.81
2023-09-27T06:11:26.959Z,101287.59
2023-09-27T06:14:29.498Z,101293.81
2023-09-27T06:17:32.297Z,101292.47
2023-09-27T06:20:34.851Z,101300.31
2023-09-27T06:23:37.369Z,101302.19
2023-09-27T06:26:42.351Z,101300.09
2023-09-27T06:29:45.048Z,101303.63
2023-09-27T06:32:48.170Z,101305.50
2023-09-27T06:35:50.724Z,101298.53
2023-09-27T06:38:53.488Z,101305.38
2023-09-27T06:41:56.422Z,101315.44
2023-09-27T06:44:59.957Z,101307.94
2023-09-27T06:48:02.480Z,101310.38
2023-09-27T06:51:06.962Z,101316.84
2023-09-27T06:54:09.551Z,101317.88
2023-09-27T06:57:12.016Z,101319.91
2023-09-27T07:00:25.418Z,101324.16
2023-09-27T07:03:34.637Z,101323.56
2023-09-27T07:06:37.259Z,101320.25
2023-09-27T07:09:41.858Z,101328.25
2023-09-27T07:12:44.430Z,101319.78
2023-09-27T07:15:47.473Z,101318.38
2023-09-27T07:18:50.458Z,101312.47
2023-09-27T07:21:53.096Z,101319.28
2023-09-27T07:24:55.591Z,101313.81
2023-09-27T07:27:58.130Z,101314.94
2023-09-27T07:31:00.612Z,101317.53
2023-09-27T07:34:03.099Z,101314.59
2023-09-27T07:37:06.093Z,101316.97
2023-09-27T07:40:13.864Z,101325.53
2023-09-27T07:43:16.788Z,101321.63
2023-09-27T07:46:20.577Z,101328.28
2023-09-27T07:49:24.246Z,101322.56
2023-09-27T07:52:26.851Z,101318.72
2023-09-27T07:55:33.500Z,101322.66
2023-09-27T07:58:43.080Z,101322.22
2023-09-27T08:01:45.917Z,101317.13
2023-09-27T08:04:49.637Z,101320.84
2023-09-27T08:07:52.581Z,101315.75
2023-09-27T08:10:55.161Z,101323.16
2023-09-27T08:13:57.539Z,101318.00
2023-09-27T08:17:00.037Z,101321.53
2023-09-27T08:20:13.504Z,101311.59
2023-09-27T08:23:16.053Z,101311.09
2023-09-27T08:26:18.470Z,101309.13
2023-09-27T08:29:22.784Z,101307.28
2023-09-27T08:32:25.362Z,101306.84
2023-09-27T08:35:28.766Z,101305.75
2023-09-27T08:38:31.729Z,101296.16
2023-09-27T08:41:34.701Z,101301.66
2023-09-27T08:44:37.602Z,101297.75
2023-09-27T08:47:43.326Z,101297.41
2023-09-27T08:50:46.137Z,101290.06
2023-09-27T08:53:48.566Z,101289.44
2023-09-27T08:56:52.627Z,101288.41
2023-09-27T08:59:56.488Z,101285.81
2023-09-27T09:03:02.274Z,101275.25
2023-09-27T09:06:11.964Z,101274.50
2023-09-27T09:09:15.149Z,101271.19
2023-09-27T09:12:18.800Z,101277.03
2023-09-27T09:15:49.935Z,101263.69
2023-09-27T09:18:56.559Z,101269.22
2023-09-27T09:22:01.584Z,101264.03
2023-09-27T09:25:04.313Z,101253.00
2023-09-27T09:28:10.832Z,101262.97
2023-09-27T09:31:27.882Z,101256.06
2023-09-27T09:34:32.760Z,101261.44
2023-09-27T09:37:36.435Z,101258.13
2023-09-27T09:40:58.170Z,101257.19
2023-09-27T09:44:17.648Z,101248.84
2023-09-27T09:47:20.784Z,101244.22
2023-09-27T09:50:23.427Z,101238.56
2023-09-27T09:53:27.523Z,101247.28
2023-09-27T09:56:36.280Z,101251.03
2023-09-27T09:59:52.336Z,101244.78
2023-09-27T10:03:03.834Z,101248.78
2023-09-27T10:06:07.770Z,101244.88
2023-09-27T10:09:16.195Z,101246.13
2023-09-27T10:12:22.507Z,101250.28
2023-09-27T10:15:27.019Z,101248.16
2023-09-27T10:18:31.815Z,101242.28
2023-09-27T10:21:35.826Z,101236.66
2023-09-27T10:24:43.133Z,101240.16
2023-09-27T10:28:01.020Z,101232.84
2023-09-27T10:31:07.418Z,101223.84
2023-09-27T10:34:29.791Z,101228.09
2023-09-27T10:38:01.103Z,101221.72
2023-09-27T10:41:04.506Z,101211.69
2023-09-27T10:44:07.286Z,101219.50
2023-09-27T10:47:10.289Z,101211.19
2023-09-27T10:50:12.920Z,101211.47
2023-09-27T10:53:15.988Z,101205.91
2023-09-27T10:56:19.260Z,101199.38
2023-09-27T10:59:22.812Z,101195.03
2023-09-27T11:02:30.759Z,101195.19
2023-09-27T11:05:33.291Z,101187.34
2023-09-27T11:08:35.872Z,101182.44
2023-09-27T11:11:38.395Z,101182.53
2023-09-27T11:14:48.930Z,101184.69
2023-09-27T11:17:57.587Z,101172.16
2023-09-27T11:21:12.253Z,101174.03
2023-09-27T11:24:16.621Z,101172.16
2023-09-27T11:27:22.515Z,101159.44
2023-09-27T11:30:26.810Z,101166.28
2023-09-27T11:33:34.870Z,101156.66
2023-09-27T11:36:48.116Z,101156.34
2023-09-27T11:39:52.306Z,101154.22
2023-09-27T11:42:54.745Z,101153.81
2023-09-27T11:45:58.823Z,101150.03
2023-09-27T11:49:09.550Z,101146.72
2023-09-27T11:52:12.543Z,101142.56
2023-09-27T11:55:15.894Z,101146.81
2023-09-27T11:58:18.257Z,101139.22
2023-09-27T12:01:23.365Z,101133.00
2023-09-27T12:04:26.087Z,101127.66
2023-09-27T12:07:29.008Z,101124.88
2023-09-27T12:10:32.158Z,101119.22
2023-09-27T12:13:34.577Z,101122.44
2023-09-27T12:16:37.054Z,101113.03
2023-09-27T12:19:40.020Z,101106.28
2023-09-27T12:22:42.923Z,101109.00
2023-09-27T12:25:45.365Z,101108.59
2023-09-27T12:28:47.995Z,101113.06
2023-09-27T12:31:50.790Z,101101.47
2023-09-27T12:34:53.712Z,101095.22
2023-09-27T12:37:56.353Z,101089.81
2023-09-27T12:41:01.651Z,101094.53
2023-09-27T12:44:04.574Z,101088.97
2023-09-27T12:47:07.081Z,101081.84
2023-09-27T12:50:09.760Z,101077.00
2023-09-27T12:53:12.332Z,101073.88
2023-09-27T12:56:16.110Z,101073.59
2023-09-27T12:59:19.931Z,101068.06
2023-09-27T13:02:22.489Z,101068.63
2023-09-27T13:05:25.061Z,101061.13
2023-09-27T13:08:27.734Z,101063.22
2023-09-27T13:11:30.415Z,101056.44
2023-09-27T13:14:32.955Z,101047.44
2023-09-27T13:17:35.549Z,101050.19
2023-09-27T13:20:38.312Z,101048.59
2023-09-27T13:23:42.458Z,101047.28
2023-09-27T13:26:45.093Z,101038.38
2023-09-27T13:29:47.590Z,101041.84
2023-09-27T13:32:50.167Z,101046.06
2023-09-27T13:35:52.985Z,101037.78
2023-09-27T13:38:55.735Z,101036.91
2023-09-27T13:41:58.484Z,101033.63
2023-09-27T13:45:01.081Z,101034.50
2023-09-27T13:48:04.864Z,101032.19
2023-09-27T13:51:07.456Z,101031.50
2023-09-27T13:54:09.870Z,101025.78
2023-09-27T13:57:12.271Z,101025.81
2023-09-27T14:00:16.881Z,101030.72
2023-09-27T14:03:19.526Z,101028.81
2023-09-27T14:06:22.274Z,101022.78
2023-09-27T14:09:24.812Z,101027.47
2023-09-27T14:12:27.295Z,101025.47
2023-09-27T14:15:29.874Z,101017.66
2023-09-27T14:18:32.460Z,101017.59
2023-09-27T14:21:35.641Z,101016.81
2023-09-27T14:24:38.279Z,101010.63
2023-09-27T14:27:40.776Z,101013.91
2023-09-27T14:30:43.185Z,101011.47
2023-09-27T14:33:45.712Z,101006.59
2023-09-27T14:36:48.386Z,101007.97
2023-09-27T14:39:50.958Z,101009.47
2023-09-27T14:42:53.306Z,101010.13
2023-09-27T14:45:55.902Z,101003.72
2023-09-27T14:48:58.507Z,101004.50
2023-09-27T14:52:01.006Z,101001.47
2023-09-27T14:55:04.358Z,101005.19
2023-09-27T14:58:07.157Z,100998.09
2023-09-27T15:01:09.679Z,100998.66
2023-09-27T15:04:14.188Z,100999.63
2023-09-27T15:07:18.086Z,100999.63
2023-09-27T15:10:21.654Z,100996.88
2023-09-27T15:13:24.280Z,100991.88
2023-09-27T15:16:26.934Z,100995.63
2023-09-27T15:19:29.532Z,100997.44
2023-09-27T15:22:32.061Z,100992.44
2023-09-27T15:25:34.464Z,100990.38
2023-09-27T15:28:36.958Z,100995.97
2023-09-27T15:31:39.527Z,100998.63
2023-09-27T15:34:42.164Z,100997.19
2023-09-27T15:37:54.629Z,100998.28
2023-09-27T15:40:57.391Z,100995.78
2023-09-27T15:43:59.909Z,100992.91
2023-09-27T15:47:02.417Z,100993.09
2023-09-27T15:50:05.743Z,100989.78
2023-09-27T15:53:08.155Z,100983.63
2023-09-27T15:56:11.881Z,100991.50
2023-09-27T15:59:14.420Z,100975.91
2023-09-27T16:02:16.927Z,100975.63
2023-09-27T16:05:19.490Z,100976.50
2023-09-27T16:08:24.402Z,100976.13
2023-09-27T16:11:31.028Z,100978.09
2023-09-27T16:14:33.538Z,100975.38
2023-09-27T16:17:37.719Z,100984.69
2023-09-27T16:20:43.548Z,100975.72
2023-09-27T16:23:45.976Z,100983.84
2023-09-27T16:26:49.660Z,100978.34
2023-09-27T16:29:52.110Z,100981.69
2023-09-27T16:32:55.756Z,100978.13
2023-09-27T16:35:58.806Z,100985.41
2023-09-27T16:39:04.014Z,100977.59
2023-09-27T16:42:06.393Z,100980.25
2023-09-27T16:45:09.577Z,100984.00
2023-09-27T16:48:12.025Z,100982.31
2023-09-27T16:51:14.617Z,100982.97
2023-09-27T16:54:17.138Z,100984.81
2023-09-27T16:57:21.657Z,100992.09
2023-09-27T17:00:24.187Z,100984.22
2023-09-27T17:03:26.731Z,100991.38
2023-09-27T17:06:29.169Z,100987.44
2023-09-27T17:09:31.725Z,100993.53
2023-09-27T17:12:34.260Z,100993.34
2023-09-27T17:15:36.964Z,100995.56
2023-09-27T17:18:39.381Z,100992.69
2023-09-27T17:21:42.086Z,100993.25
2023-09-27T17:24:44.846Z,100992.25
2023-09-27T17:27:47.614Z,100993.91
2023-09-27T17:30:52.135Z,100992.13
2023-09-27T17:33:55.666Z,100989.94
2023-09-27T17:36:58.391Z,100989.25
2023-09-27T17:40:07.851Z,100994.00
2023-09-27T17:43:10.423Z,100994.09
2023-09-27T17:46:23.506Z,100999.97
2023-09-27T17:49:27.512Z,100999.81
2023-09-27T17:52:30.048Z,100999.03
2023-09-27T17:55:32.825Z,101003.47
2023-09-27T17:58:36.480Z,100998.56
2023-09-27T18:01:39.285Z,100994.91
2023-09-27T18:04:42.014Z,100995.53
2023-09-27T18:07:45.292Z,101004.16
2023-09-27T18:10:51.295Z,100999.47
2023-09-27T18:13:54.111Z,100993.75
2023-09-27T18:16:57.598Z,100990.75
2023-09-27T18:20:01.409Z,100995.94
2023-09-27T18:23:04.554Z,100998.16
2023-09-27T18:26:07.032Z,100986.75
2023-09-27T18:29:10.223Z,100991.38
2023-09-27T18:32:12.927Z,100996.25
2023-09-27T18:35:15.621Z,100997.25
2023-09-27T18:38:18.372Z,100990.91
2023-09-27T18:41:21.132Z,101005.03
2023-09-27T18:44:24.251Z,100996.69
2023-09-27T18:47:27.476Z,100998.78
2023-09-27T18:50:30.623Z,100988.94
2023-09-27T18:53:33.423Z,100994.97
2023-09-27T18:56:36.273Z,100993.09
2023-09-27T18:59:40.105Z,100989.81
2023-09-27T19:02:43.218Z,100993.88
2023-09-27T19:05:46.030Z,100988.59
2023-09-27T19:08:49.076Z,100987.34
2023-09-27T19:11:54.362Z,100983.88
2023-09-27T19:14:57.189Z,100991.00
2023-09-27T19:17:59.964Z,100988.31
2023-09-27T19:21:02.539Z,100996.56
2023-09-27T19:24:06.537Z,100987.91
2023-09-27T19:27:09.298Z,100987.59
2023-09-27T19:30:16.019Z,100987.84
2023-09-27T19:33:18.533Z,100991.09
2023-09-27T19:36:21.624Z,100984.91
2023-09-27T19:39:24.066Z,100984.47
2023-09-27T19:42:26.565Z,100985.78
2023-09-27T19:45:29.056Z,100991.38
2023-09-27T19:48:52.192Z,100989.25
2023-09-27T19:51:55.318Z,100990.81
2023-09-27T19:54:58.240Z,100992.41
2023-09-27T19:58:01.504Z,100995.44
2023-09-27T20:01:05.160Z,100990.38
2023-09-27T20:04:07.958Z,100991.06
2023-09-27T20:07:10.415Z,100988.72
2023-09-27T20:10:12.971Z,100999.59
2023-09-27T20:13:15.481Z,101001.16
2023-09-27T20:16:17.979Z,101001.88
2023-09-27T20:19:20.565Z,100995.56
2023-09-27T20:22:23.056Z,100995.16
2023-09-27T20:25:25.645Z,101004.34
2023-09-27T20:28:28.152Z,100994.38
2023-09-27T20:31:31.413Z,100998.09
2023-09-27T20:34:33.907Z,100997.03
2023-09-27T20:37:36.313Z,100998.75
2023-09-27T20:40:38.998Z,100996.41
2023-09-27T20:43:41.442Z,100996.94
2023-09-27T20:46:43.961Z,100992.22
2023-09-27T20:49:46.456Z,100988.31
2023-09-27T20:52:48.953Z,100992.69
2023-09-27T20:55:53.927Z,100992.78
2023-09-27T20:58:56.397Z,100989.31
2023-09-27T21:01:59.536Z,100993.69
2023-09-27T21:05:02.081Z,100989.53
2023-09-27T21:08:04.938Z,100996.72
2023-09-27T21:11:07.528Z,100993.44
2023-09-27T21:14:10.050Z,100991.03
2023-09-27T21:17:12.592Z,100991.97
2023-09-27T21:20:15.139Z,100991.88
2023-09-27T21:23:17.539Z,100986.34
2023-09-27T21:26:20.459Z,100986.22
2023-09-27T21:29:22.914Z,100990.59
2023-09-27T21:32:25.420Z,100989.66
2023-09-27T21:35:27.956Z,100985.38
2023-09-27T21:38:31.357Z,100993.72
2023-09-27T21:41:33.778Z,100993.47
2023-09-27T21:44:36.205Z,100987.84
2023-09-27T21:47:38.564Z,100994.75
2023-09-27T21:50:40.901Z,100997.91
2023-09-27T21:53:43.837Z,100994.56
2023-09-27T21:56:46.295Z,100997.56
2023-09-27T21:59:48.735Z,100996.81
2023-09-27T22:02:51.275Z,100999.56
2023-09-27T22:05:53.735Z,100998.84
2023-09-27T22:08:58.294Z,100993.00
2023-09-27T22:12:00.738Z,100994.38
2023-09-27T22:15:07.174Z,101001.53
2023-09-27T22:18:11.510Z,101001.03
2023-09-27T22:21:19.647Z,101000.25
2023-09-27T22:24:25.512Z,101009.75
2023-09-27T22:27:28.076Z,101002.00
2023-09-27T22:30:31.537Z,101010.91
2023-09-27T22:33:35.522Z,101007.63
2023-09-27T22:36:52.043Z,101006.84
2023-09-27T22:40:08.396Z,101009.84
2023-09-27T22:43:17.419Z,101008.22
2023-09-27T22:46:21.311Z,101004.94
2023-09-27T22:49:24.622Z,101006.06
2023-09-27T22:52:27.137Z,101001.94
2023-09-27T22:55:29.614Z,101003.44
2023-09-27T22:58:33.972Z,101003.31
2023-09-27T23:01:37.040Z,100997.38
2023-09-27T23:04:41.300Z,101000.69
2023-09-27T23:07:43.929Z,100998.91
2023-09-27T23:10:48.963Z,101001.13
2023-09-27T23:14:05.914Z,101000.03
2023-09-27T23:17:29.024Z,101001.59
2023-09-27T23:20:32.412Z,101011.03
2023-09-27T23:23:37.919Z,101018.09
2023-09-27T23:26:52.720Z,101010.91
2023-09-27T23:29:57.144Z,101009.66
2023-09-27T23:33:01.454Z,101006.81
2023-09-27T23:36:04.620Z,101003.66
2023-09-27T23:39:18.153Z,101003.28
2023-09-27T23:42:24.512Z,101006.94
2023-09-27T23:45:27.054Z,101001.31
2023-09-27T23:48:29.429Z,101003.88
2023-09-27T23:51:33.626Z,100997.94
2023-09-27T23:54:36.056Z,100997.06
2023-09-27T23:57:41.031Z,101000.72
